Stations météo

réclame
Mon MeteoGroup
Trollenhagen, Allemagne (10281): Température de l'air & dewpoint: 14.09.2018 18:00:00 - 20.09.2018 18:00:00 (CEST)Trollenhagen, Allemagne (10281): Température de l'air 5cm & Température de l'air -5cm: 14.09.2018 18:00:00 - 20.09.2018 18:00:00 (CEST)Trollenhagen, Allemagne (10281): Température de l'air -20cm & Température de l'air -100cm: 14.09.2018 18:00:00 - 20.09.2018 18:00:00 (CEST)Trollenhagen, Allemagne (10281): Vitesse du vent & gusts: 14.09.2018 18:00:00 - 20.09.2018 18:00:00 (CEST)Trollenhagen, Allemagne (10281): Direction du vent: 14.09.2018 18:00:00 - 20.09.2018 18:00:00 (CEST)Trollenhagen, Allemagne (10281): reduced air pressure: 14.09.2018 18:00:00 - 20.09.2018 18:00:00 (CEST)Trollenhagen, Allemagne (10281): Ensoleillement: 14.09.2018 18:00:00 - 20.09.2018 18:00:00 (CEST)Trollenhagen, Allemagne (10281): Quantités de précipitations: 14.09.2018 18:00:00 - 20.09.2018 18:00:00 (CEST)
Date & Time tt [°C] td [°C] tt 5cm [°C] tt -5cm [°C] tt -20cm [°C] tt -100cm [°C] ff [km/h] ff [knt] fx [km/h] fx [knt] dd ppp [hPa] sd [min] rr [mm]
20.09.2018 18:00:00 24,6 12,7 23,8 24,5 21,7 17,3 10 5 28 15 SSW 1014,2 0 0,0
20.09.2018 17:00:00 24,9 12,4 24,9 25,8 21,5 17,3 16 9 30 16 SSW 1014,5 29 0,0
20.09.2018 16:00:00 25,7 12,2 27,9 26,8 21,1 17,3 24 13 43 23 SW 1014,8 48 0,0
20.09.2018 15:00:00 24,5 12,9 25,9 26,2 20,6 17,3 22 12 40 22 WSW 1015,3 22 0,0
20.09.2018 14:00:00 25,5 13,2 29,0 26,5 20,0 17,3 21 11 37 20 WSW 1015,8 37 0,0
20.09.2018 13:00:00 24,1 13,2 26,7 25,5 19,3 17,3 23 13 37 20 SW 1016,2 57 0,0
20.09.2018 12:00:00 23,8 13,3 27,0 23,7 18,8 17,3 24 13 45 24 WSW 1016,6 60 0,0
20.09.2018 11:00:00 22,3 13,3 24,2 21,6 18,4 17,3 26 14 39 21 WSW 1017,1 60 0,0
20.09.2018 10:00:00 20,8 13,4 22,7 19,2 18,2 17,3 18 10 32 17 SW 1017,2 60 0,0
20.09.2018 09:00:00 19,1 12,9 20,2 17,3 18,3 17,3 16 8 24 13 SW 1017,4 33 0,0
20.09.2018 08:00:00 18,2 12,8 16,6 16,6 18,5 17,3 11 6 20 11 SSW 1017,1 0 0,0
20.09.2018 07:00:00 18,4 12,7 16,5 16,7 18,7 17,2 10 5 17 9 SW 1016,8 0 0,0
20.09.2018 06:00:00 18,6 12,8 16,6 16,9 18,9 17,2 11 6 16 9 SW 1016,7 0 0,0
20.09.2018 05:00:00 18,1 13,1 16,5 17,1 19,1 17,2 11 6 14 8 SW 1016,6 0 0,0
20.09.2018 04:00:00 18,5 13,2 16,4 17,3 19,3 17,2 12 7 16 9 WSW 1016,6 0 0,0
20.09.2018 03:00:00 19,2 13,3 17,7 17,6 19,6 17,2 11 6 17 9 SW 1016,4 0 0,0
20.09.2018 02:00:00 18,8 13,3 16,7 17,9 19,9 17,2 12 6 19 11 SW 1016,2 0 0,0
20.09.2018 01:00:00 20,0 13,0 17,7 18,3 20,2 17,2 10 5 16 8 S 1015,7 0 0,0
20.09.2018 00:00:00 20,7 13,4 18,0 18,8 20,5 17,2 10 5 18 10 SSW 1015,7 0 0,0
19.09.2018 23:00:00 21,3 13,2 18,6 19,3 20,9 17,2 9 5 14 8 SSW 1015,9 0 0,0
19.09.2018 22:00:00 21,2 13,4 18,9 20,0 21,2 17,2 8 4 18 10 SSW 1015,9 0 0,0
19.09.2018 21:00:00 21,7 13,4 19,6 20,9 21,6 17,2 11 6 16 9 SSE 1015,5 0 0,0
19.09.2018 20:00:00 22,5 13,6 19,2 22,2 21,9 17,2 7 4 11 6 SE 1015,4 0 0,0
19.09.2018 19:00:00 24,5 13,7 22,9 24,1 22,0 17,1 6 4 24 13 S 1015,4 17 0,0
19.09.2018 18:00:00 25,6 13,5 25,6 26,2 21,8 17,1 18 10 32 17 SSW 1015,7 60 0,0
19.09.2018 17:00:00 26,4 13,2 27,7 27,6 21,5 17,1 18 10 34 19 SW 1015,7 60 0,0
19.09.2018 16:00:00 26,2 11,3 28,4 28,1 20,9 17,1 24 13 34 18 WSW 1016,3 60 0,0
19.09.2018 15:00:00 26,1 12,0 28,9 28,0 20,2 17,1 23 12 42 23 WSW 1016,7 60 0,0
19.09.2018 14:00:00 24,8 12,3 28,1 27,2 19,5 17,1 20 11 36 19 SW 1017,0 60 0,0
19.09.2018 13:00:00 23,7 13,8 27,2 25,5 18,7 17,1 18 10 31 17 SSW 1017,0 60 0,0
19.09.2018 12:00:00 22,1 14,2 25,7 23,5 18,1 17,1 17 9 31 17 SSW 1017,6 60 0,0
19.09.2018 11:00:00 20,8 14,3 23,5 21,0 17,7 17,1 18 10 26 14 WSW 1017,8 60 0,0
19.09.2018 10:00:00 19,2 13,9 20,9 18,3 17,5 17,1 17 9 23 12 W 1017,7 48 0,0
19.09.2018 09:00:00 17,4 14,0 18,3 16,6 17,6 17,1 14 8 21 11 WSW 1017,4 60 0,0
19.09.2018 08:00:00 15,5 13,9 14,8 15,4 17,8 17,1 11 6 16 9 WSW 1016,9 29 0,0
19.09.2018 07:00:00 14,7 13,8 13,2 15,3 18,0 17,0 14 7 16 9 WSW 1016,4 0 0,0
19.09.2018 06:00:00 16,4 14,2 14,3 15,7 18,3 17,0 10 5 14 7 SW 1016,1 0 0,0
19.09.2018 05:00:00 15,0 13,4 11,5 15,9 18,6 17,0 8 5 12 7 SW 1015,9 0 0,0
19.09.2018 04:00:00 16,4 13,8 12,5 16,3 18,9 17,0 7 4 9 5 WSW 1015,6 0 0,0
19.09.2018 03:00:00 16,0 13,3 12,3 17,0 19,2 17,0 10 5 16 9 WNW 1014,9 0 0,0
19.09.2018 02:00:00 17,8 13,6 15,3 17,7 19,5 17,0 10 5 32 17 NW 1014,5 0 0,0
19.09.2018 01:00:00 20,5 10,4 18,3 18,2 19,8 17,0 18 10 48 26 WNW 1013,8 0 0,0
19.09.2018 00:00:00 22,1 9,6 20,3 18,7 20,1 17,0 11 6 19 10 S 1012,6 0 0,0
18.09.2018 23:00:00 21,9 9,6 19,8 18,9 20,4 17,0 11 6 17 9 SSE 1012,4 0 0,0
18.09.2018 22:00:00 22,0 9,3 18,8 19,5 20,8 17,0 10 5 16 9 SSE 1012,5 0 0,0
18.09.2018 21:00:00 22,6 9,0 19,0 20,4 21,2 17,0 10 5 13 7 SSE 1012,4 0 0,0
18.09.2018 20:00:00 24,6 8,2 19,2 21,9 21,6 17,0 8 4 12 6 SSE 1012,2 0 0,0
18.09.2018 19:00:00 26,6 7,9 23,2 24,5 21,6 17,0 6 4 21 12 S 1012,0 36 0,0
18.09.2018 18:00:00 28,3 7,9 28,0 26,7 21,5 17,0 14 8 32 17 SSW 1012,0 60 0,0
18.09.2018 17:00:00 28,8 7,9 29,9 28,1 21,0 17,0 17 9 35 19 SW 1012,1 60 0,0
18.09.2018 16:00:00 28,9 7,8 30,9 28,6 20,4 17,0 21 12 37 20 SW 1012,4 60 0,0
18.09.2018 15:00:00 28,0 10,2 30,3 28,3 19,6 17,0 16 9 38 21 S 1013,0 60 0,0
18.09.2018 14:00:00 27,8 9,2 29,7 27,5 18,7 17,0 21 11 34 18 S 1013,8 60 0,0
18.09.2018 13:00:00 28,0 9,7 31,0 26,1 17,8 17,0 14 8 29 16 S 1014,3 60 0,0
18.09.2018 12:00:00 26,2 11,2 28,7 23,8 17,0 17,0 16 9 26 14 S 1015,0 60 0,0
18.09.2018 11:00:00 23,8 10,9 25,9 20,9 16,4 17,0 10 5 19 10 SSE 1015,6 60 0,0
18.09.2018 10:00:00 20,5 10,5 21,6 17,5 16,1 17,0 11 6 18 10 SSE 1015,8 60 0,0
18.09.2018 09:00:00 17,4 9,2 18,0 14,9 16,1 17,0 12 7 24 13 SSE 1016,1 60 0,0
18.09.2018 08:00:00 16,2 8,3 15,0 13,8 16,3 17,0 13 7 19 10 SSE 1016,2 14 0,0
18.09.2018 07:00:00 15,8 7,9 13,7 13,5 16,5 17,0 8 5 17 9 SSE 1016,3 0 0,0
18.09.2018 06:00:00 15,9 7,5 13,4 13,7 16,7 17,0 9 5 17 9 S 1016,4 0 0,0
18.09.2018 05:00:00 16,5 7,6 14,0 13,6 17,0 16,9 9 5 13 7 SSE 1016,6 0 0,0
18.09.2018 04:00:00 14,7 8,1 10,9 14,0 17,3 16,9 5 3 9 5 S 1016,9 0 0,0
18.09.2018 03:00:00 15,9 8,1 11,9 14,7 17,6 16,9 6 4 15 8 S 1017,0 0 0,0
18.09.2018 02:00:00 14,7 8,2 10,9 15,1 18,0 16,9 3 2 15 8 SE 1017,5 0 0,0
18.09.2018 01:00:00 16,6 8,5 11,9 15,4 18,3 16,9 6 4 11 6 S 1017,5 0 0,0
18.09.2018 00:00:00 15,1 8,5 11,2 15,9 18,7 16,9 4 2 9 5 SSW 1017,8 0 0,0
17.09.2018 23:00:00 15,4 8,9 10,6 16,6 19,1 16,9 5 3 8 4 S 1018,0 0 0,0
17.09.2018 22:00:00 16,5 8,9 12,0 17,6 19,5 17,0 4 2 11 6 S 1018,1 0 0,0
17.09.2018 21:00:00 19,7 9,2 15,2 18,7 19,9 17,0 6 3 11 6 S 1018,1 0 0,0
17.09.2018 20:00:00 21,3 9,3 17,5 20,1 20,2 17,0 7 4 9 5 S 1017,9 0 0,0
17.09.2018 19:00:00 23,1 8,8 19,6 22,3 20,3 17,0 6 4 16 9 SW 1017,7 0 0,0
17.09.2018 18:00:00 24,5 8,6 24,2 24,4 20,1 17,0 13 7 23 13 WSW 1017,7 57 0,0
17.09.2018 17:00:00 25,1 8,4 26,2 25,6 19,7 17,0 15 8 27 15 SW 1017,7 59 0,0
17.09.2018 16:00:00 24,9 8,3 26,7 26,0 19,2 17,0 18 10 31 17 SW 1018,0 60 0,0
17.09.2018 15:00:00 25,3 8,6 27,7 25,9 18,5 17,0 22 12 36 19 W 1018,3 60 0,0
17.09.2018 14:00:00 24,3 8,3 27,3 25,6 17,6 17,0 22 12 35 19 SW 1018,7 60 0,0
17.09.2018 13:00:00 23,7 9,7 27,6 24,0 16,8 17,0 16 9 29 15 WSW 1019,3 60 0,0
17.09.2018 12:00:00 21,5 9,3 24,3 21,8 16,1 17,0 14 8 22 12 SW 1019,4 60 0,0
17.09.2018 11:00:00 19,4 9,7 21,6 18,8 15,6 17,0 12 6 19 11 SSW 1019,6 60 0,0
17.09.2018 10:00:00 17,9 9,7 19,2 16,7 15,3 17,0 10 5 13 7 S 1019,8 60 0,0
17.09.2018 09:00:00 15,8 9,6 16,8 14,2 15,4 17,0 9 5 16 9 SSW 1019,9 60 0,0
17.09.2018 08:00:00 13,9 9,3 12,4 12,6 15,6 17,0 7 4 11 6 SW 1019,7 20 0,0
17.09.2018 07:00:00 13,8 8,7 11,2 12,6 15,8 17,0 9 5 13 7 SSW 1019,4 0 0,0
17.09.2018 06:00:00 13,3 8,4 8,9 13,4 16,0 17,0 5 3 14 8 SSW 1019,4 0 0,0
17.09.2018 05:00:00 15,0 8,5 13,7 13,9 16,2 17,0 9 5 16 9 SSW 1019,5 0 0,0
17.09.2018 04:00:00 14,2 8,8 12,3 13,6 16,4 17,0 9 5 16 9 S 1019,5 0 0,0
17.09.2018 03:00:00 15,2 8,8 14,2 14,3 16,6 17,1 11 6 18 10 S 1019,6 0 0,0
17.09.2018 02:00:00 15,5 8,7 14,2 14,2 16,9 17,1 8 4 17 9 S 1020,0 0 0,0
17.09.2018 01:00:00 15,7 8,7 14,0 14,8 17,1 17,1 10 6 22 12 S 1020,1 0 0,0
17.09.2018 00:00:00 15,7 9,0 14,2 15,3 17,4 17,1 9 5 16 8 S 1020,6 0 0,0
16.09.2018 23:00:00 15,9 9,1 14,4 15,8 17,6 17,1 8 5 17 9 SSE 1020,9 0 0,0
16.09.2018 22:00:00 16,4 9,2 15,2 16,2 17,9 17,1 9 5 16 8 SSE 1021,2 0 0,0
16.09.2018 21:00:00 16,5 9,0 14,8 16,7 18,3 17,1 9 5 13 7 SSE 1021,0 0 0,0
16.09.2018 20:00:00 17,8 9,0 16,4 17,8 18,5 17,1 8 4 12 6 S 1021,0 0 0,0
16.09.2018 19:00:00 18,9 8,8 16,8 19,6 18,6 17,1 7 4 22 12 S 1021,1 8 0,0
16.09.2018 18:00:00 19,8 8,6 19,8 21,1 18,5 17,2 13 7 24 13 SSW 1021,1 32 0,0
16.09.2018 17:00:00 20,7 8,5 23,3 22,6 18,2 17,2 14 8 28 15 SSW 1021,6 43 0,0
16.09.2018 16:00:00 19,8 8,8 21,6 23,8 17,7 17,2 14 8 33 18 SSW 1022,2 60 0,0
16.09.2018 15:00:00 19,9 9,1 22,8 23,5 16,9 17,2 15 8 27 14 SSW 1022,8 54 0,0
16.09.2018 14:00:00 18,4 9,6 22,4 22,6 16,2 17,2 14 8 25 14 SW 1023,4 59 0,0
16.09.2018 13:00:00 18,0 10,2 20,8 20,6 15,5 17,2 15 8 27 14 SW 1023,8 44 0,0
16.09.2018 12:00:00 16,6 9,7 18,1 19,0 14,9 17,2 17 9 29 15 SW 1024,4 43 0,0
16.09.2018 11:00:00 16,3 9,7 18,8 17,2 14,4 17,2 14 8 23 13 WSW 1024,8 59 0,0
16.09.2018 10:00:00 15,1 10,5 17,2 14,7 14,1 17,3 13 7 19 10 WSW 1024,9 54 0,0
16.09.2018 09:00:00 12,6 10,9 12,9 12,3 14,0 17,3 13 7 17 9 SW 1025,0 60 0,0
16.09.2018 08:00:00 10,8 10,1 10,2 10,6 14,2 17,3 11 6 16 9 SW 1024,7 36 0,0
16.09.2018 07:00:00 10,0 9,8 8,4 10,2 14,5 17,3 10 6 14 8 SW 1024,2 0 0,0
16.09.2018 06:00:00 10,4 10,0 8,9 10,6 14,7 17,3 11 6 16 9 SW 1024,1 0 0,0
16.09.2018 05:00:00 10,4 10,0 8,5 10,8 15,0 17,3 9 5 11 6 SW 1024,2 0 0,0
16.09.2018 04:00:00 9,7 9,0 7,2 11,1 15,3 17,3 7 4 14 7 WSW 1024,1 0 0,0
16.09.2018 03:00:00 10,5 10,0 8,4 11,5 15,5 17,3 9 5 13 7 SW 1024,1 0 0,0
16.09.2018 02:00:00 11,2 10,5 10,1 11,9 15,8 17,3 11 6 19 10 SW 1024,1 0 0,0
16.09.2018 01:00:00 11,2 10,6 9,2 12,4 16,1 17,3 9 5 15 8 WSW 1024,0 0 0,0
16.09.2018 00:00:00 12,3 11,0 11,2 13,3 16,4 17,3 13 7 18 10 SW 1023,8 0 0,0
15.09.2018 23:00:00 12,4 10,8 11,2 13,3 16,8 17,3 9 5 11 6 SW 1023,2 0 0,0
15.09.2018 22:00:00 12,4 10,5 9,4 13,9 17,1 17,3 9 5 11 6 WSW 1023,2 0 0,0
15.09.2018 21:00:00 12,8 10,3 11,3 14,8 17,4 17,3 8 4 14 7 W 1023,0 0 0,0
15.09.2018 20:00:00 13,7 10,9 12,7 15,4 17,6 17,3 9 5 18 10 WSW 1022,4 0 0,0
15.09.2018 19:00:00 13,9 11,1 13,2 16,1 17,9 17,3 13 7 18 10 W 1021,9 0 0,0
15.09.2018 18:00:00 13,6 11,4 12,7 16,6 18,2 17,4 11 6 27 14 W 1021,5 0 0,1
15.09.2018 17:00:00 13,5 11,0 12,5 17,7 18,3 17,4 18 10 41 22 WNW 1021,2 0 0,3
15.09.2018 16:00:00 16,6 12,2 15,2 19,9 18,2 17,4 16 9 34 18 W 1020,2 3 0,3
15.09.2018 15:00:00 19,0 9,4 21,1 21,1 17,9 17,4 23 13 39 21 W 1019,7 5 0,0
15.09.2018 14:00:00 18,2 9,0 19,0 21,1 17,5 17,4 28 15 45 24 W 1019,8 26 0,0
15.09.2018 13:00:00 19,4 9,6 24,1 20,4 17,0 17,4 25 14 45 25 W 1019,5 31 0,0
15.09.2018 12:00:00 17,9 9,9 19,7 20,3 16,4 17,4 22 12 39 21 W 1019,4 48 0,0
15.09.2018 11:00:00 17,5 10,0 20,8 18,5 16,0 17,4 26 14 43 23 WSW 1019,1 60 0,0
15.09.2018 10:00:00 16,0 9,6 17,9 16,0 15,8 17,4 24 13 39 21 W 1018,8 60 0,0
15.09.2018 09:00:00 13,5 9,2 14,5 13,8 15,9 17,4 17 9 26 14 WSW 1018,5 60 0,0
15.09.2018 08:00:00 11,5 8,2 10,7 12,8 16,1 17,4 11 6 16 9 SW 1018,5 11 0,0
15.09.2018 07:00:00 11,4 8,2 10,2 12,9 16,4 17,4 9 5 21 11 SW 1017,9 0 0,0
15.09.2018 06:00:00 11,8 8,8 9,7 13,1 16,7 17,4 14 7 19 10 SW 1017,4 0 0,0
15.09.2018 05:00:00 12,7 9,7 10,0 13,7 17,0 17,4 9 5 14 7 SSW 1017,3 0 0,0
15.09.2018 04:00:00 13,5 9,8 12,0 14,5 17,2 17,4 9 5 14 7 SSW 1017,5 0 0,0
15.09.2018 03:00:00 13,4 9,4 11,7 14,8 17,5 17,4 8 5 14 8 SSW 1017,6 0 0,0
15.09.2018 02:00:00 14,1 9,6 13,0 15,4 17,7 17,4 8 4 13 7 SSW 1018,1 0 0,0
15.09.2018 01:00:00 14,1 9,0 12,6 15,4 18,0 17,4 7 4 11 6 SSW 1018,3 0 0,0
15.09.2018 00:00:00 14,2 8,8 12,0 16,0 18,3 17,4 6 3 12 6 S 1018,4 0 0,0
14.09.2018 23:00:00 14,7 8,5 13,5 16,2 18,6 17,4 7 4 13 7 S 1018,5 0 0,0
14.09.2018 22:00:00 15,6 8,3 14,2 16,9 18,9 17,4 10 6 16 8 S 1018,7 0 0,0
14.09.2018 21:00:00 16,7 8,2 14,0 17,7 19,3 17,4 6 3 8 5 SSW 1018,8 0 0,0
14.09.2018 20:00:00 16,6 7,7 13,6 18,5 19,6 17,4 5 3 14 8 SSW 1018,5 0 0,0
14.09.2018 19:00:00 18,2 7,2 16,7 20,7 19,7 17,4 12 6 19 11 WSW 1018,7 28 0,0
14.09.2018 18:00:00 18,6 6,8 17,3 22,1 19,7 17,4 10 5 22 12 SW 1018,7 31 0,0

tt = Température de l'air
td = dewpoint
tt 5cm = Température de l'air 5cm
tt -5cm = Température de l'air -5cm
tt -20cm = Température de l'air -20cm
tt -100cm = Température de l'air -100cm
ff = Vitesse du vent
fx = gusts
dd = Direction du vent
ppp = reduced air pressure
sd = Ensoleillement
rr = Quantités de précipitations

stations d'obs. à proximité